createdAt,value
2022-11-23T00:01:37.793Z,52.20
2022-11-23T00:04:12.158Z,51.93
2022-11-23T00:06:40.469Z,59.50
2022-11-23T00:09:10.960Z,61.10
2022-11-23T00:11:38.341Z,51.30
2022-11-23T00:14:05.620Z,55.85
2022-11-23T00:16:33.039Z,54.10
2022-11-23T00:19:02.810Z,40.50
2022-11-23T00:21:32.638Z,47.45
2022-11-23T00:24:00.089Z,50.60
2022-11-23T00:26:27.949Z,48.00
2022-11-23T00:28:55.964Z,55.80
2022-11-23T00:31:25.967Z,57.17
2022-11-23T00:33:56.355Z,49.63
2022-11-23T00:36:26.017Z,65.30
2022-11-23T00:38:58.886Z,54.87
2022-11-23T00:41:34.385Z,52.37
2022-11-23T00:44:01.773Z,66.00
2022-11-23T00:46:32.297Z,57.20
2022-11-23T00:49:00.613Z,54.40
2022-11-23T00:51:43.076Z,55.07
2022-11-23T00:54:10.824Z,58.67
2022-11-23T00:56:38.036Z,60.67
2022-11-23T00:59:08.876Z,57.20
2022-11-23T01:01:37.860Z,48.03
2022-11-23T01:04:08.458Z,58.10
2022-11-23T01:06:40.232Z,48.40
2022-11-23T01:09:18.185Z,46.53
2022-11-23T01:11:48.550Z,51.23
2022-11-23T01:14:18.186Z,54.33
2022-11-23T01:16:45.463Z,48.00
2022-11-23T01:19:16.224Z,47.40
2022-11-23T01:21:44.515Z,64.40
2022-11-23T01:24:21.865Z,54.70
2022-11-23T01:26:56.100Z,44.27
2022-11-23T01:29:26.329Z,46.53
2022-11-23T01:31:53.481Z,48.83
2022-11-23T01:34:21.022Z,52.57
2022-11-23T01:36:48.437Z,44.65
2022-11-23T01:39:16.177Z,58.50
2022-11-23T01:41:44.890Z,46.60
2022-11-23T01:44:33.881Z,42.50
2022-11-23T01:47:07.413Z,48.10
2022-11-23T01:49:50.128Z,51.90
2022-11-23T01:52:25.313Z,52.10
2022-11-23T01:54:56.514Z,51.00
2022-11-23T01:57:34.746Z,55.00
2022-11-23T02:00:02.372Z,42.00
2022-11-23T02:02:32.530Z,44.30
2022-11-23T02:05:05.168Z,47.50
2022-11-23T02:07:33.842Z,48.10
2022-11-23T02:10:01.702Z,45.37
2022-11-23T02:12:28.874Z,52.87
2022-11-23T02:14:56.848Z,43.17
2022-11-23T02:17:24.525Z,47.00
2022-11-23T02:19:57.810Z,44.10
2022-11-23T02:22:44.981Z,43.27
2022-11-23T02:25:39.880Z,39.23
2022-11-23T02:28:09.875Z,48.70
2022-11-23T02:30:45.784Z,40.70
2022-11-23T02:33:13.589Z,39.73
2022-11-23T02:36:01.266Z,42.57
2022-11-23T02:38:32.902Z,47.15
2022-11-23T02:41:00.563Z,45.30
2022-11-23T02:43:28.314Z,47.10
2022-11-23T02:45:58.880Z,43.93
2022-11-23T02:48:27.067Z,44.17
2022-11-23T02:50:54.245Z,41.47
2022-11-23T02:53:21.538Z,47.67
2022-11-23T02:55:58.119Z,49.40
2022-11-23T02:58:31.211Z,42.90
2022-11-23T03:00:58.985Z,48.43
2022-11-23T03:03:26.917Z,42.53
2022-11-23T03:05:56.812Z,44.73
2022-11-23T03:08:24.083Z,47.73
2022-11-23T03:10:51.483Z,49.90
2022-11-23T03:13:19.210Z,37.00
2022-11-23T03:15:46.362Z,38.27
2022-11-23T03:18:16.422Z,44.87
2022-11-23T03:20:49.784Z,48.97
2022-11-23T03:23:17.143Z,39.57
2022-11-23T03:25:44.496Z,41.30
2022-11-23T03:28:11.421Z,46.63
2022-11-23T03:30:38.582Z,47.37
2022-11-23T03:33:08.995Z,43.13
2022-11-23T03:35:41.825Z,38.90
2022-11-23T03:38:09.345Z,39.40
2022-11-23T03:40:37.313Z,45.47
2022-11-23T03:43:05.091Z,39.90
2022-11-23T03:45:33.334Z,48.40
2022-11-23T03:48:01.229Z,46.10
2022-11-23T03:50:29.948Z,45.33
2022-11-23T03:53:01.192Z,41.75
2022-11-23T03:55:29.217Z,47.95
2022-11-23T03:57:59.837Z,53.70
2022-11-23T04:00:33.687Z,52.20
2022-11-23T04:03:01.506Z,38.17
2022-11-23T04:05:34.629Z,60.80
2022-11-23T04:08:05.664Z,43.00
2022-11-23T04:10:36.406Z,44.20
2022-11-23T04:13:06.652Z,48.93
2022-11-23T04:15:37.458Z,42.20
2022-11-23T04:18:05.395Z,47.40
2022-11-23T04:20:35.439Z,52.60
2022-11-23T04:23:02.966Z,49.73
2022-11-23T04:25:38.975Z,41.70
2022-11-23T04:31:03.657Z,43.87
2022-11-23T04:33:47.480Z,44.20
2022-11-23T04:36:15.014Z,49.30
2022-11-23T04:38:42.684Z,45.37
2022-11-23T04:41:10.860Z,38.17
2022-11-23T04:43:41.514Z,39.20
2022-11-23T04:46:12.476Z,41.00
2022-11-23T04:48:42.494Z,46.00
2022-11-23T04:51:13.091Z,42.15
2022-11-23T04:53:41.050Z,44.70
2022-11-23T04:56:12.109Z,57.07
2022-11-23T04:58:44.880Z,45.33
2022-11-23T05:01:12.683Z,43.57
2022-11-23T05:03:39.952Z,38.47
2022-11-23T05:06:08.281Z,43.20
2022-11-23T05:08:42.071Z,46.57
2022-11-23T05:11:10.153Z,50.73
2022-11-23T05:13:39.861Z,38.90
2022-11-23T05:16:10.287Z,42.20
2022-11-23T05:18:37.794Z,43.53
2022-11-23T05:21:08.999Z,39.00
2022-11-23T05:23:36.239Z,39.17
2022-11-23T05:26:03.949Z,37.30
2022-11-23T05:28:40.521Z,52.55
2022-11-23T05:31:11.698Z,40.87
2022-11-23T05:33:39.799Z,39.30
2022-11-23T05:36:08.894Z,39.10
2022-11-23T05:38:36.975Z,38.17
2022-11-23T05:41:10.440Z,44.10
2022-11-23T05:43:40.421Z,36.97
2022-11-23T05:46:13.463Z,37.37
2022-11-23T05:48:59.243Z,45.47
2022-11-23T05:51:32.534Z,37.20
2022-11-23T05:54:03.070Z,37.27
2022-11-23T05:56:35.815Z,45.43
2022-11-23T05:59:08.399Z,37.27
2022-11-23T06:01:36.300Z,32.60
2022-11-23T06:04:07.298Z,35.30
2022-11-23T06:06:38.614Z,41.90
2022-11-23T06:09:09.831Z,36.30
2022-11-23T06:11:38.199Z,31.60
2022-11-23T06:14:09.977Z,36.90
2022-11-23T06:16:43.172Z,39.47
2022-11-23T06:19:22.688Z,32.70
2022-11-23T06:21:50.690Z,35.10
2022-11-23T06:24:18.466Z,37.80
2022-11-23T06:26:45.443Z,34.93
2022-11-23T06:29:13.193Z,38.97
2022-11-23T06:31:40.930Z,38.00
2022-11-23T06:34:20.161Z,37.00
2022-11-23T06:36:51.483Z,31.20
2022-11-23T06:39:19.246Z,36.25
2022-11-23T06:44:37.704Z,31.00
2022-11-23T06:47:05.444Z,40.10
2022-11-23T06:49:35.891Z,41.03
2022-11-23T06:52:06.641Z,42.50
2022-11-23T06:54:37.874Z,38.57
2022-11-23T06:57:08.712Z,36.20
2022-11-23T06:59:41.940Z,36.70
2022-11-23T07:02:18.587Z,30.60
2022-11-23T07:04:46.233Z,37.73
2022-11-23T07:07:16.033Z,36.20
2022-11-23T07:09:48.088Z,39.20
2022-11-23T07:12:15.638Z,39.20
2022-11-23T07:14:45.557Z,41.07
2022-11-23T07:17:18.628Z,33.67
2022-11-23T07:19:46.408Z,36.20
2022-11-23T07:22:16.324Z,34.47
2022-11-23T07:24:46.930Z,30.63
2022-11-23T07:27:20.816Z,37.00
2022-11-23T07:29:51.176Z,41.40
2022-11-23T07:32:22.398Z,32.73
2022-11-23T07:34:50.236Z,40.13
2022-11-23T07:37:25.383Z,34.50
2022-11-23T07:39:58.142Z,35.20
2022-11-23T07:42:38.118Z,36.20
2022-11-23T07:45:12.287Z,45.70
2022-11-23T07:47:40.661Z,36.27
2022-11-23T07:50:13.391Z,36.17
2022-11-23T07:52:49.069Z,40.33
2022-11-23T07:55:20.133Z,36.67
2022-11-23T07:57:59.785Z,31.20
2022-11-23T08:00:38.326Z,33.00
2022-11-23T08:03:27.337Z,36.30
2022-11-23T08:06:08.955Z,29.77
2022-11-23T08:08:43.582Z,31.20
2022-11-23T08:11:23.839Z,27.83
2022-11-23T08:13:57.952Z,30.97
2022-11-23T08:16:31.247Z,35.93
2022-11-23T08:19:02.785Z,40.70
2022-11-23T08:21:30.761Z,29.73
2022-11-23T08:23:58.323Z,32.37
2022-11-23T08:26:26.522Z,36.87
2022-11-23T08:28:54.307Z,32.33
2022-11-23T08:31:30.984Z,42.20
2022-11-23T08:34:03.521Z,27.70
2022-11-23T08:36:35.406Z,31.60
2022-11-23T08:39:11.706Z,33.80
2022-11-23T08:41:39.486Z,28.60
2022-11-23T08:44:11.413Z,31.40
2022-11-23T08:46:40.800Z,34.40
2022-11-23T08:49:29.044Z,29.00
2022-11-23T08:52:00.552Z,35.10
2022-11-23T08:54:34.579Z,31.50
2022-11-23T08:57:05.822Z,29.90
2022-11-23T08:59:34.482Z,30.87
2022-11-23T09:02:08.148Z,33.77
2022-11-23T09:08:16.903Z,31.93
2022-11-23T09:10:53.753Z,32.13
2022-11-23T09:13:25.535Z,29.97
2022-11-23T09:16:23.771Z,27.43
2022-11-23T09:18:55.784Z,34.40
2022-11-23T09:21:23.352Z,36.03
2022-11-23T09:23:50.932Z,34.10
2022-11-23T09:26:21.183Z,30.03
2022-11-23T09:28:49.000Z,26.90
2022-11-23T09:31:19.845Z,31.53
2022-11-23T09:33:47.509Z,25.20
2022-11-23T09:36:22.184Z,31.67
2022-11-23T09:38:59.523Z,21.77
2022-11-23T09:42:04.428Z,24.00
2022-11-23T09:45:01.468Z,21.67
2022-11-23T09:48:05.017Z,28.93
2022-11-23T09:52:08.731Z,26.93
2022-11-23T09:54:50.312Z,23.47
2022-11-23T09:57:54.787Z,23.63
2022-11-23T10:00:27.750Z,27.93
2022-11-23T10:02:55.612Z,25.37
2022-11-23T10:05:38.824Z,18.90
2022-11-23T10:08:46.486Z,22.05
2022-11-23T10:11:55.791Z,25.87
2022-11-23T10:19:31.876Z,21.30
2022-11-23T10:26:16.331Z,26.40
2022-11-23T10:28:46.537Z,20.87
2022-11-23T10:31:17.649Z,19.23
2022-11-23T10:34:12.582Z,24.97
2022-11-23T10:36:45.970Z,24.30
2022-11-23T10:39:28.762Z,25.87
2022-11-23T10:42:03.371Z,24.27
2022-11-23T10:44:37.609Z,32.90
2022-11-23T10:47:17.175Z,24.60
2022-11-23T10:50:44.250Z,24.93
2022-11-23T10:53:31.170Z,29.27
2022-11-23T10:56:03.796Z,21.77
2022-11-23T10:58:35.426Z,24.90
2022-11-23T11:01:18.053Z,22.03
2022-11-23T11:04:59.998Z,25.07
2022-11-23T11:06:46.184Z,29.70
2022-11-23T11:09:24.822Z,35.13
2022-11-23T11:16:21.386Z,24.40
2022-11-23T11:18:48.895Z,28.20
2022-11-23T11:21:35.293Z,25.87
2022-11-23T11:24:21.537Z,47.33
2022-11-23T11:27:04.782Z,25.33
2022-11-23T11:29:44.542Z,25.10
2022-11-23T11:33:13.966Z,20.60
2022-11-23T11:35:53.162Z,26.80
2022-11-23T11:38:38.762Z,28.33
2022-11-23T11:41:51.290Z,57.87
2022-11-23T11:44:29.515Z,32.00
2022-11-23T11:47:18.446Z,20.13
2022-11-23T11:50:03.717Z,22.10
2022-11-23T11:52:45.925Z,24.67
2022-11-23T11:55:28.366Z,20.27
2022-11-23T11:58:26.214Z,22.67
2022-11-23T12:01:48.380Z,20.47
2022-11-23T12:05:03.053Z,24.00
2022-11-23T12:08:02.803Z,20.67
2022-11-23T12:11:41.529Z,24.95
2022-11-23T12:14:31.389Z,38.40
2022-11-23T12:17:34.032Z,25.60
2022-11-23T12:20:32.685Z,19.60
2022-11-23T12:23:10.623Z,22.17
2022-11-23T12:26:16.765Z,21.17
2022-11-23T12:29:03.208Z,19.73
2022-11-23T12:31:51.999Z,21.70
2022-11-23T12:34:34.066Z,24.40
2022-11-23T12:37:19.278Z,23.47
2022-11-23T12:40:10.913Z,29.67
2022-11-23T12:42:52.731Z,20.20
2022-11-23T12:45:57.218Z,23.60
2022-11-23T12:48:51.404Z,17.10
2022-11-23T12:51:56.102Z,22.17
2022-11-23T12:54:41.151Z,16.33
2022-11-23T12:57:38.397Z,21.40
2022-11-23T13:00:22.885Z,26.60
2022-11-23T13:02:58.142Z,24.30
2022-11-23T13:06:11.727Z,24.40
2022-11-23T13:09:16.393Z,23.00
2022-11-23T13:12:30.090Z,21.20
2022-11-23T13:15:39.987Z,23.90
2022-11-23T13:18:43.118Z,20.80
2022-11-23T13:21:17.796Z,24.65
2022-11-23T13:23:44.964Z,21.33
2022-11-23T13:26:28.219Z,23.03
2022-11-23T13:28:58.364Z,30.77
2022-11-23T13:31:31.129Z,22.13
2022-11-23T13:34:02.571Z,27.57
2022-11-23T13:37:11.071Z,25.63
2022-11-23T13:39:56.468Z,22.93
2022-11-23T13:42:26.691Z,27.80
2022-11-23T13:45:26.604Z,21.87
2022-11-23T13:48:49.053Z,23.77
2022-11-23T13:51:05.781Z,24.67
2022-11-23T13:53:42.251Z,22.80
2022-11-23T13:56:34.371Z,23.33
2022-11-23T13:59:22.543Z,19.70
2022-11-23T14:02:02.550Z,22.57
2022-11-23T14:04:35.821Z,15.17
2022-11-23T14:07:09.023Z,21.20
2022-11-23T14:09:57.622Z,22.37
2022-11-23T14:12:57.020Z,23.67
2022-11-23T14:15:33.378Z,25.77
2022-11-23T14:18:40.169Z,20.00
2022-11-23T14:21:14.521Z,21.87
2022-11-23T14:24:18.829Z,23.03
2022-11-23T14:27:45.885Z,26.17
2022-11-23T14:30:42.520Z,15.70
2022-11-23T14:33:29.557Z,22.83
2022-11-23T14:36:30.648Z,25.70
2022-11-23T14:39:32.663Z,18.70
2022-11-23T14:42:04.201Z,25.40
2022-11-23T14:44:38.408Z,20.70
2022-11-23T14:47:11.377Z,14.90
2022-11-23T14:49:50.477Z,22.37
2022-11-23T14:52:22.164Z,20.27
2022-11-23T14:54:52.064Z,18.60
2022-11-23T14:57:23.289Z,22.30
2022-11-23T14:59:58.830Z,25.83
2022-11-23T15:02:40.307Z,25.00
2022-11-23T15:05:51.669Z,25.73
2022-11-23T15:08:35.684Z,17.67
2022-11-23T15:11:15.276Z,30.30
2022-11-23T15:13:52.162Z,26.13
2022-11-23T15:16:22.255Z,23.77
2022-11-23T15:18:49.943Z,20.83
2022-11-23T15:21:25.343Z,17.93
2022-11-23T15:23:57.294Z,18.67
2022-11-23T15:26:47.445Z,24.10
2022-11-23T15:29:34.026Z,24.50
2022-11-23T15:34:51.979Z,22.67
2022-11-23T15:37:19.086Z,23.23
2022-11-23T15:39:47.103Z,26.00
2022-11-23T15:42:20.483Z,19.60
2022-11-23T15:44:50.877Z,21.17
2022-11-23T15:47:28.375Z,24.43
2022-11-23T15:50:09.713Z,24.10
2022-11-23T15:52:38.276Z,23.90
2022-11-23T15:55:10.153Z,23.50
2022-11-23T15:57:39.537Z,27.17
2022-11-23T16:00:09.557Z,16.53
2022-11-23T16:02:36.988Z,20.40
2022-11-23T16:05:25.330Z,23.10
2022-11-23T16:07:58.027Z,21.70
2022-11-23T16:10:27.257Z,23.47
2022-11-23T16:13:00.204Z,19.47
2022-11-23T16:15:40.651Z,22.10
2022-11-23T16:18:28.042Z,21.70
2022-11-23T16:21:01.494Z,25.00
2022-11-23T16:23:54.604Z,23.70
2022-11-23T16:26:31.437Z,23.30
2022-11-23T16:28:59.912Z,22.07
2022-11-23T16:31:29.267Z,26.17
2022-11-23T16:33:56.935Z,24.43
2022-11-23T16:36:27.510Z,20.07
2022-11-23T16:38:57.630Z,29.90
2022-11-23T16:41:26.594Z,35.03
2022-11-23T16:43:54.173Z,28.50
2022-11-23T16:46:21.628Z,27.50
2022-11-23T16:48:48.613Z,21.60
2022-11-23T16:51:15.888Z,27.53
2022-11-23T16:54:12.480Z,21.17
2022-11-23T16:56:32.537Z,25.40
2022-11-23T16:59:00.269Z,24.10
2022-11-23T17:01:29.962Z,37.33
2022-11-23T17:03:56.987Z,21.63
2022-11-23T17:06:24.010Z,28.70
2022-11-23T17:09:00.550Z,22.03
2022-11-23T17:11:30.240Z,28.50
2022-11-23T17:13:58.360Z,29.60
2022-11-23T17:16:26.910Z,34.57
2022-11-23T17:18:53.979Z,25.47
2022-11-23T17:21:20.954Z,29.90
2022-11-23T17:23:48.540Z,27.30
2022-11-23T17:26:29.173Z,28.83
2022-11-23T17:28:56.822Z,26.87
2022-11-23T17:31:23.711Z,27.83
2022-11-23T17:33:50.730Z,35.97
2022-11-23T17:36:17.979Z,30.03
2022-11-23T17:38:47.191Z,31.63
2022-11-23T17:41:14.554Z,33.60
2022-11-23T17:43:41.528Z,32.67
2022-11-23T17:46:31.258Z,30.30
2022-11-23T17:49:02.275Z,33.07
2022-11-23T17:51:29.874Z,32.33
2022-11-23T17:53:56.939Z,33.20
2022-11-23T17:56:25.790Z,39.13
2022-11-23T17:58:53.088Z,30.90
2022-11-23T18:01:22.208Z,35.30
2022-11-23T18:03:49.824Z,36.50
2022-11-23T18:06:21.016Z,38.77
2022-11-23T18:08:49.860Z,35.67
2022-11-23T18:11:17.975Z,36.67
2022-11-23T18:13:44.962Z,39.83
2022-11-23T18:16:12.019Z,35.47
2022-11-23T18:18:39.318Z,34.93
2022-11-23T18:21:06.929Z,36.67
2022-11-23T18:23:34.109Z,37.57
2022-11-23T18:26:03.239Z,32.33
2022-11-23T18:28:30.697Z,39.97
2022-11-23T18:30:57.675Z,33.73
2022-11-23T18:33:24.609Z,39.13
2022-11-23T18:35:51.469Z,40.13
2022-11-23T18:38:18.639Z,47.57
2022-11-23T18:40:45.574Z,40.03
2022-11-23T18:43:12.461Z,38.50
2022-11-23T18:45:39.404Z,38.97
2022-11-23T18:48:07.888Z,31.70
2022-11-23T18:50:36.281Z,41.13
2022-11-23T18:53:03.491Z,43.33
2022-11-23T18:55:30.381Z,38.43
2022-11-23T18:57:57.206Z,39.83
2022-11-23T19:00:25.169Z,39.30
2022-11-23T19:03:00.426Z,37.43
2022-11-23T19:05:31.178Z,38.07
2022-11-23T19:08:04.424Z,39.57
2022-11-23T19:10:37.127Z,45.43
2022-11-23T19:13:05.943Z,37.70
2022-11-23T19:15:34.011Z,41.30
2022-11-23T19:18:02.372Z,44.60
2022-11-23T19:20:29.643Z,42.07
2022-11-23T19:22:56.618Z,48.50
2022-11-23T19:25:23.644Z,40.50
2022-11-23T19:27:51.432Z,36.93
2022-11-23T19:30:18.847Z,51.10
2022-11-23T19:32:45.972Z,37.90
2022-11-23T19:35:13.043Z,47.43
2022-11-23T19:37:40.219Z,46.47
2022-11-23T19:40:08.247Z,49.57
2022-11-23T19:42:35.889Z,41.13
2022-11-23T19:45:05.474Z,50.20
2022-11-23T19:47:32.437Z,46.57
2022-11-23T19:49:59.494Z,45.63
2022-11-23T19:52:47.974Z,43.90
2022-11-23T19:55:16.903Z,41.37
2022-11-23T19:57:43.732Z,45.63
2022-11-23T20:00:11.470Z,54.50
2022-11-23T20:02:38.324Z,48.93
2022-11-23T20:05:05.862Z,45.00
2022-11-23T20:07:32.893Z,46.83
2022-11-23T20:09:59.757Z,48.67
2022-11-23T20:12:26.613Z,43.83
2022-11-23T20:14:53.699Z,43.60
2022-11-23T20:17:20.585Z,54.67
2022-11-23T20:19:47.678Z,49.13
2022-11-23T20:22:14.534Z,52.53
2022-11-23T20:24:41.365Z,57.60
2022-11-23T20:27:08.277Z,41.87
2022-11-23T20:29:35.652Z,51.80
2022-11-23T20:32:02.872Z,47.40
2022-11-23T20:34:29.754Z,47.80
2022-11-23T20:36:56.684Z,51.60
2022-11-23T20:39:23.578Z,40.93
2022-11-23T20:41:50.592Z,66.03
2022-11-23T20:44:17.890Z,49.30
2022-11-23T20:47:01.109Z,47.47
2022-11-23T20:49:29.815Z,48.00
2022-11-23T20:51:56.784Z,46.30
2022-11-23T20:54:23.700Z,56.00
2022-11-23T20:56:50.745Z,61.43
2022-11-23T20:59:19.604Z,58.87
2022-11-23T21:01:46.582Z,49.53
2022-11-23T21:04:13.594Z,49.10
2022-11-23T21:06:40.687Z,57.00
2022-11-23T21:09:11.415Z,54.00
2022-11-23T21:11:56.904Z,53.20
2022-11-23T21:14:28.194Z,63.63
2022-11-23T21:16:58.703Z,71.30
2022-11-23T21:19:39.153Z,54.00
2022-11-23T21:22:14.735Z,53.43
2022-11-23T21:24:42.125Z,52.33
2022-11-23T21:27:13.211Z,64.10
2022-11-23T21:29:40.356Z,51.50
2022-11-23T21:32:07.316Z,53.10
2022-11-23T21:34:34.592Z,58.07
2022-11-23T21:37:01.735Z,53.70
2022-11-23T21:39:31.243Z,50.47
2022-11-23T21:41:58.245Z,44.37
2022-11-23T21:44:25.145Z,52.13
2022-11-23T21:46:52.177Z,58.17
2022-11-23T21:49:19.316Z,61.43
2022-11-23T21:51:46.676Z,50.03
2022-11-23T21:54:15.878Z,57.73
2022-11-23T21:56:45.679Z,58.03
2022-11-23T21:59:13.369Z,53.90
2022-11-23T22:01:41.001Z,49.90
2022-11-23T22:04:15.173Z,66.17
2022-11-23T22:06:44.436Z,63.37
2022-11-23T22:09:12.607Z,49.77
2022-11-23T22:11:42.221Z,52.63
2022-11-23T22:14:14.743Z,58.33
2022-11-23T22:16:49.811Z,54.53
2022-11-23T22:19:17.839Z,56.80
2022-11-23T22:21:45.920Z,56.97
2022-11-23T22:24:15.871Z,56.27
2022-11-23T22:26:43.809Z,67.70
2022-11-23T22:29:11.720Z,53.40
2022-11-23T22:31:39.060Z,57.63
2022-11-23T22:34:10.232Z,54.27
2022-11-23T22:36:37.105Z,60.50
2022-11-23T22:39:06.470Z,57.67
2022-11-23T22:41:36.643Z,63.87
2022-11-23T22:44:06.835Z,54.67
2022-11-23T22:46:33.905Z,65.57
2022-11-23T22:49:02.147Z,60.67
2022-11-23T22:51:29.878Z,65.93
2022-11-23T22:53:59.556Z,63.93
2022-11-23T22:56:27.946Z,90.73
2022-11-23T22:58:55.086Z,77.93
2022-11-23T23:01:26.451Z,80.73
2022-11-23T23:03:55.966Z,60.83
2022-11-23T23:06:26.265Z,108.50
2022-11-23T23:08:56.024Z,96.77
2022-11-23T23:11:24.336Z,72.57
2022-11-23T23:13:51.828Z,91.47
2022-11-23T23:16:19.320Z,83.67
2022-11-23T23:18:46.416Z,83.63
2022-11-23T23:21:21.549Z,83.60
2022-11-23T23:23:51.364Z,139.13
2022-11-23T23:26:21.098Z,110.90
2022-11-23T23:28:48.621Z,69.27
2022-11-23T23:31:17.395Z,99.97
2022-11-23T23:33:45.741Z,108.63
2022-11-23T23:36:19.783Z,80.20
2022-11-23T23:38:46.848Z,85.53
2022-11-23T23:41:14.671Z,85.00
2022-11-23T23:43:42.634Z,139.67
2022-11-23T23:46:12.646Z,134.97
2022-11-23T23:48:41.147Z,103.97
2022-11-23T23:51:13.126Z,150.47
2022-11-23T23:53:40.699Z,148.37
2022-11-23T23:56:14.096Z,138.20
2022-11-23T23:58:41.481Z,153.83
